sensor_id;sensor_type;location;lat;lon;timestamp;P1;durP1;ratioP1;P2;durP2;ratioP2
31782;SDS011;18351;47.560;9.708;2023-06-14T00:01:43;8.50;;;4.40;;
31782;SDS011;18351;47.560;9.708;2023-06-14T00:04:10;7.00;;;5.10;;
31782;SDS011;18351;47.560;9.708;2023-06-14T00:06:37;7.43;;;3.78;;
31782;SDS011;18351;47.560;9.708;2023-06-14T00:09:03;8.02;;;4.45;;
31782;SDS011;18351;47.560;9.708;2023-06-14T00:11:30;7.05;;;4.55;;
31782;SDS011;18351;47.560;9.708;2023-06-14T00:13:57;6.00;;;5.00;;
31782;SDS011;18351;47.560;9.708;2023-06-14T00:16:22;4.82;;;4.13;;
31782;SDS011;18351;47.560;9.708;2023-06-14T00:18:48;6.35;;;3.95;;
31782;SDS011;18351;47.560;9.708;2023-06-14T00:21:16;5.88;;;4.25;;
31782;SDS011;18351;47.560;9.708;2023-06-14T00:23:42;6.47;;;3.90;;
31782;SDS011;18351;47.560;9.708;2023-06-14T00:26:08;9.15;;;4.35;;
31782;SDS011;18351;47.560;9.708;2023-06-14T00:28:33;6.65;;;4.63;;
31782;SDS011;18351;47.560;9.708;2023-06-14T00:30:59;9.27;;;4.57;;
31782;SDS011;18351;47.560;9.708;2023-06-14T00:33:24;10.88;;;5.00;;
31782;SDS011;18351;47.560;9.708;2023-06-14T00:35:50;7.97;;;5.10;;
31782;SDS011;18351;47.560;9.708;2023-06-14T00:38:18;5.47;;;4.13;;
31782;SDS011;18351;47.560;9.708;2023-06-14T00:40:44;5.70;;;4.35;;
31782;SDS011;18351;47.560;9.708;2023-06-14T00:43:10;5.28;;;4.13;;
31782;SDS011;18351;47.560;9.708;2023-06-14T00:45:35;5.78;;;4.50;;
31782;SDS011;18351;47.560;9.708;2023-06-14T00:48:01;9.00;;;4.47;;
31782;SDS011;18351;47.560;9.708;2023-06-14T00:50:28;9.40;;;4.13;;
31782;SDS011;18351;47.560;9.708;2023-06-14T00:52:58;5.82;;;4.50;;
31782;SDS011;18351;47.560;9.708;2023-06-14T00:55:24;7.43;;;4.80;;
31782;SDS011;18351;47.560;9.708;2023-06-14T00:57:50;11.73;;;4.32;;
31782;SDS011;18351;47.560;9.708;2023-06-14T01:00:16;9.13;;;4.65;;
31782;SDS011;18351;47.560;9.708;2023-06-14T01:02:42;8.32;;;4.60;;
31782;SDS011;18351;47.560;9.708;2023-06-14T01:05:07;7.50;;;4.53;;
31782;SDS011;18351;47.560;9.708;2023-06-14T01:15:32;11.65;;;4.65;;
31782;SDS011;18351;47.560;9.708;2023-06-14T01:17:57;8.93;;;4.53;;
31782;SDS011;18351;47.560;9.708;2023-06-14T01:20:28;10.00;;;4.70;;
31782;SDS011;18351;47.560;9.708;2023-06-14T01:22:56;5.95;;;4.25;;
31782;SDS011;18351;47.560;9.708;2023-06-14T01:25:21;6.18;;;4.40;;
31782;SDS011;18351;47.560;9.708;2023-06-14T01:27:48;9.88;;;4.53;;
31782;SDS011;18351;47.560;9.708;2023-06-14T01:30:15;8.20;;;4.72;;
31782;SDS011;18351;47.560;9.708;2023-06-14T01:32:42;10.05;;;4.85;;
31782;SDS011;18351;47.560;9.708;2023-06-14T01:35:08;6.35;;;4.90;;
31782;SDS011;18351;47.560;9.708;2023-06-14T01:37:34;6.72;;;4.85;;
31782;SDS011;18351;47.560;9.708;2023-06-14T01:40:03;7.15;;;5.20;;
31782;SDS011;18351;47.560;9.708;2023-06-14T01:42:31;7.60;;;5.00;;
31782;SDS011;18351;47.560;9.708;2023-06-14T01:45:02;7.05;;;4.18;;
31782;SDS011;18351;47.560;9.708;2023-06-14T01:47:29;6.47;;;4.78;;
31782;SDS011;18351;47.560;9.708;2023-06-14T01:49:56;6.85;;;4.78;;
31782;SDS011;18351;47.560;9.708;2023-06-14T01:52:21;6.57;;;4.90;;
31782;SDS011;18351;47.560;9.708;2023-06-14T01:54:49;9.07;;;5.00;;
31782;SDS011;18351;47.560;9.708;2023-06-14T01:57:15;7.68;;;5.22;;
31782;SDS011;18351;47.560;9.708;2023-06-14T01:59:41;10.43;;;5.60;;
31782;SDS011;18351;47.560;9.708;2023-06-14T02:02:06;9.43;;;5.30;;
31782;SDS011;18351;47.560;9.708;2023-06-14T02:04:32;7.57;;;4.93;;
31782;SDS011;18351;47.560;9.708;2023-06-14T02:06:58;7.13;;;5.25;;
31782;SDS011;18351;47.560;9.708;2023-06-14T02:09:23;7.50;;;5.05;;
31782;SDS011;18351;47.560;9.708;2023-06-14T02:11:49;8.50;;;5.40;;
31782;SDS011;18351;47.560;9.708;2023-06-14T02:14:14;7.72;;;5.38;;
31782;SDS011;18351;47.560;9.708;2023-06-14T02:16:42;8.70;;;5.80;;
31782;SDS011;18351;47.560;9.708;2023-06-14T02:19:13;8.85;;;5.20;;
31782;SDS011;18351;47.560;9.708;2023-06-14T02:21:43;7.20;;;4.95;;
31782;SDS011;18351;47.560;9.708;2023-06-14T02:24:09;9.18;;;5.35;;
31782;SDS011;18351;47.560;9.708;2023-06-14T02:26:35;7.75;;;5.15;;
31782;SDS011;18351;47.560;9.708;2023-06-14T02:29:02;11.65;;;5.53;;
31782;SDS011;18351;47.560;9.708;2023-06-14T02:31:28;8.00;;;5.22;;
31782;SDS011;18351;47.560;9.708;2023-06-14T02:33:54;6.72;;;4.68;;
31782;SDS011;18351;47.560;9.708;2023-06-14T02:36:20;8.48;;;5.53;;
31782;SDS011;18351;47.560;9.708;2023-06-14T02:38:45;6.55;;;4.65;;
31782;SDS011;18351;47.560;9.708;2023-06-14T02:41:11;7.97;;;5.60;;
31782;SDS011;18351;47.560;9.708;2023-06-14T02:43:37;7.90;;;4.90;;
31782;SDS011;18351;47.560;9.708;2023-06-14T02:46:02;7.80;;;5.75;;
31782;SDS011;18351;47.560;9.708;2023-06-14T02:48:28;8.48;;;5.22;;
31782;SDS011;18351;47.560;9.708;2023-06-14T02:50:54;7.68;;;5.50;;
31782;SDS011;18351;47.560;9.708;2023-06-14T02:53:21;8.55;;;4.80;;
31782;SDS011;18351;47.560;9.708;2023-06-14T02:55:47;10.02;;;5.63;;
31782;SDS011;18351;47.560;9.708;2023-06-14T02:58:13;8.48;;;5.95;;
31782;SDS011;18351;47.560;9.708;2023-06-14T03:00:39;7.38;;;5.32;;
31782;SDS011;18351;47.560;9.708;2023-06-14T03:03:06;11.07;;;5.50;;
31782;SDS011;18351;47.560;9.708;2023-06-14T03:05:38;7.07;;;5.30;;
31782;SDS011;18351;47.560;9.708;2023-06-14T03:08:11;7.50;;;5.38;;
31782;SDS011;18351;47.560;9.708;2023-06-14T03:10:41;8.65;;;5.60;;
31782;SDS011;18351;47.560;9.708;2023-06-14T03:13:08;6.63;;;5.53;;
31782;SDS011;18351;47.560;9.708;2023-06-14T03:15:35;9.30;;;6.03;;
31782;SDS011;18351;47.560;9.708;2023-06-14T03:18:01;8.65;;;5.57;;
31782;SDS011;18351;47.560;9.708;2023-06-14T03:20:26;7.53;;;5.65;;
31782;SDS011;18351;47.560;9.708;2023-06-14T03:22:54;9.18;;;5.28;;
31782;SDS011;18351;47.560;9.708;2023-06-14T03:25:23;8.73;;;5.20;;
31782;SDS011;18351;47.560;9.708;2023-06-14T03:27:48;10.68;;;5.75;;
31782;SDS011;18351;47.560;9.708;2023-06-14T03:30:14;12.15;;;5.95;;
31782;SDS011;18351;47.560;9.708;2023-06-14T03:32:39;11.70;;;5.97;;
31782;SDS011;18351;47.560;9.708;2023-06-14T03:35:05;8.40;;;5.30;;
31782;SDS011;18351;47.560;9.708;2023-06-14T03:37:31;12.13;;;5.15;;
31782;SDS011;18351;47.560;9.708;2023-06-14T03:39:56;8.52;;;5.78;;
31782;SDS011;18351;47.560;9.708;2023-06-14T03:42:22;7.50;;;5.10;;
31782;SDS011;18351;47.560;9.708;2023-06-14T03:44:48;10.02;;;5.55;;
31782;SDS011;18351;47.560;9.708;2023-06-14T03:47:13;12.30;;;5.20;;
31782;SDS011;18351;47.560;9.708;2023-06-14T03:49:39;8.00;;;5.22;;
31782;SDS011;18351;47.560;9.708;2023-06-14T03:52:05;10.73;;;5.35;;
31782;SDS011;18351;47.560;9.708;2023-06-14T03:54:31;8.40;;;5.22;;
31782;SDS011;18351;47.560;9.708;2023-06-14T03:56:57;10.30;;;5.93;;
31782;SDS011;18351;47.560;9.708;2023-06-14T03:59:24;7.60;;;5.53;;
31782;SDS011;18351;47.560;9.708;2023-06-14T04:01:50;7.95;;;5.40;;
31782;SDS011;18351;47.560;9.708;2023-06-14T04:04:16;7.30;;;4.88;;
31782;SDS011;18351;47.560;9.708;2023-06-14T04:06:42;8.23;;;5.72;;
31782;SDS011;18351;47.560;9.708;2023-06-14T04:09:07;8.57;;;5.30;;
31782;SDS011;18351;47.560;9.708;2023-06-14T04:11:33;9.93;;;5.57;;
31782;SDS011;18351;47.560;9.708;2023-06-14T04:13:59;11.15;;;5.38;;
31782;SDS011;18351;47.560;9.708;2023-06-14T04:16:24;7.07;;;4.85;;
31782;SDS011;18351;47.560;9.708;2023-06-14T04:18:50;7.95;;;5.18;;
31782;SDS011;18351;47.560;9.708;2023-06-14T04:21:17;8.73;;;5.50;;
31782;SDS011;18351;47.560;9.708;2023-06-14T04:23:43;7.05;;;5.05;;
31782;SDS011;18351;47.560;9.708;2023-06-14T04:26:09;8.32;;;6.22;;
31782;SDS011;18351;47.560;9.708;2023-06-14T04:28:35;9.82;;;5.82;;
31782;SDS011;18351;47.560;9.708;2023-06-14T04:31:05;9.25;;;5.82;;
31782;SDS011;18351;47.560;9.708;2023-06-14T04:33:33;8.77;;;5.30;;
31782;SDS011;18351;47.560;9.708;2023-06-14T04:36:08;8.23;;;5.88;;
31782;SDS011;18351;47.560;9.708;2023-06-14T04:38:35;12.63;;;5.47;;
31782;SDS011;18351;47.560;9.708;2023-06-14T04:41:00;7.85;;;4.97;;
31782;SDS011;18351;47.560;9.708;2023-06-14T04:43:26;11.45;;;5.35;;
31782;SDS011;18351;47.560;9.708;2023-06-14T04:45:52;6.20;;;4.90;;
31782;SDS011;18351;47.560;9.708;2023-06-14T04:48:19;9.15;;;5.28;;
31782;SDS011;18351;47.560;9.708;2023-06-14T04:50:46;5.65;;;4.57;;
31782;SDS011;18351;47.560;9.708;2023-06-14T04:53:11;6.82;;;5.63;;
31782;SDS011;18351;47.560;9.708;2023-06-14T04:55:37;6.70;;;4.75;;
31782;SDS011;18351;47.560;9.708;2023-06-14T04:58:03;7.18;;;4.78;;
31782;SDS011;18351;47.560;9.708;2023-06-14T05:00:29;9.75;;;5.55;;
31782;SDS011;18351;47.560;9.708;2023-06-14T05:02:55;11.10;;;5.68;;
31782;SDS011;18351;47.560;9.708;2023-06-14T05:05:22;9.15;;;5.82;;
31782;SDS011;18351;47.560;9.708;2023-06-14T05:07:48;6.05;;;4.50;;
31782;SDS011;18351;47.560;9.708;2023-06-14T05:10:14;6.30;;;5.07;;
31782;SDS011;18351;47.560;9.708;2023-06-14T05:12:40;9.20;;;5.68;;
31782;SDS011;18351;47.560;9.708;2023-06-14T05:15:08;13.15;;;5.15;;
31782;SDS011;18351;47.560;9.708;2023-06-14T05:17:35;6.10;;;4.80;;
31782;SDS011;18351;47.560;9.708;2023-06-14T05:20:01;11.13;;;5.57;;
31782;SDS011;18351;47.560;9.708;2023-06-14T05:22:27;7.15;;;5.07;;
31782;SDS011;18351;47.560;9.708;2023-06-14T05:24:53;10.45;;;5.35;;
31782;SDS011;18351;47.560;9.708;2023-06-14T05:27:18;8.10;;;5.30;;
31782;SDS011;18351;47.560;9.708;2023-06-14T05:29:44;9.55;;;5.45;;
31782;SDS011;18351;47.560;9.708;2023-06-14T05:32:09;7.47;;;5.40;;
31782;SDS011;18351;47.560;9.708;2023-06-14T05:34:35;6.35;;;5.20;;
31782;SDS011;18351;47.560;9.708;2023-06-14T05:37:00;7.95;;;5.30;;
31782;SDS011;18351;47.560;9.708;2023-06-14T05:39:26;6.70;;;5.03;;
31782;SDS011;18351;47.560;9.708;2023-06-14T05:41:51;11.82;;;5.32;;
31782;SDS011;18351;47.560;9.708;2023-06-14T05:44:17;10.70;;;5.70;;
31782;SDS011;18351;47.560;9.708;2023-06-14T05:46:43;9.05;;;5.50;;
31782;SDS011;18351;47.560;9.708;2023-06-14T05:49:08;7.78;;;4.88;;
31782;SDS011;18351;47.560;9.708;2023-06-14T05:51:34;8.68;;;4.72;;
31782;SDS011;18351;47.560;9.708;2023-06-14T05:54:00;7.47;;;5.05;;
31782;SDS011;18351;47.560;9.708;2023-06-14T05:56:25;7.05;;;4.50;;
31782;SDS011;18351;47.560;9.708;2023-06-14T05:58:51;5.55;;;4.35;;
31782;SDS011;18351;47.560;9.708;2023-06-14T06:01:17;6.63;;;4.55;;
31782;SDS011;18351;47.560;9.708;2023-06-14T06:03:42;9.15;;;4.43;;
31782;SDS011;18351;47.560;9.708;2023-06-14T06:06:12;5.70;;;4.13;;
31782;SDS011;18351;47.560;9.708;2023-06-14T06:08:37;6.78;;;4.45;;
31782;SDS011;18351;47.560;9.708;2023-06-14T06:11:03;4.85;;;3.85;;
31782;SDS011;18351;47.560;9.708;2023-06-14T06:13:28;6.72;;;4.50;;
31782;SDS011;18351;47.560;9.708;2023-06-14T06:15:54;10.43;;;4.50;;
31782;SDS011;18351;47.560;9.708;2023-06-14T06:18:21;5.45;;;4.43;;
31782;SDS011;18351;47.560;9.708;2023-06-14T06:20:46;5.75;;;4.20;;
31782;SDS011;18351;47.560;9.708;2023-06-14T06:23:12;6.03;;;4.35;;
31782;SDS011;18351;47.560;9.708;2023-06-14T06:25:38;5.90;;;3.90;;
31782;SDS011;18351;47.560;9.708;2023-06-14T06:28:03;4.25;;;3.85;;
31782;SDS011;18351;47.560;9.708;2023-06-14T06:30:29;7.43;;;4.10;;
31782;SDS011;18351;47.560;9.708;2023-06-14T06:32:54;8.25;;;4.22;;
31782;SDS011;18351;47.560;9.708;2023-06-14T06:35:23;5.22;;;4.20;;
31782;SDS011;18351;47.560;9.708;2023-06-14T06:37:48;7.53;;;4.22;;
31782;SDS011;18351;47.560;9.708;2023-06-14T06:40:14;8.57;;;3.70;;
31782;SDS011;18351;47.560;9.708;2023-06-14T06:42:39;6.10;;;4.38;;
31782;SDS011;18351;47.560;9.708;2023-06-14T06:45:06;12.10;;;5.05;;
31782;SDS011;18351;47.560;9.708;2023-06-14T06:47:32;8.93;;;4.40;;
31782;SDS011;18351;47.560;9.708;2023-06-14T06:49:57;5.85;;;4.32;;
31782;SDS011;18351;47.560;9.708;2023-06-14T06:52:23;10.63;;;5.30;;
31782;SDS011;18351;47.560;9.708;2023-06-14T06:54:49;6.72;;;4.60;;
31782;SDS011;18351;47.560;9.708;2023-06-14T06:57:15;8.90;;;5.20;;
31782;SDS011;18351;47.560;9.708;2023-06-14T06:59:41;11.18;;;5.13;;
31782;SDS011;18351;47.560;9.708;2023-06-14T07:02:06;9.68;;;5.85;;
31782;SDS011;18351;47.560;9.708;2023-06-14T07:04:32;9.10;;;5.88;;
31782;SDS011;18351;47.560;9.708;2023-06-14T07:06:57;6.80;;;5.20;;
31782;SDS011;18351;47.560;9.708;2023-06-14T07:09:23;8.10;;;5.68;;
31782;SDS011;18351;47.560;9.708;2023-06-14T07:11:49;9.63;;;5.53;;
31782;SDS011;18351;47.560;9.708;2023-06-14T07:14:15;9.68;;;5.78;;
31782;SDS011;18351;47.560;9.708;2023-06-14T07:16:41;9.55;;;5.88;;
31782;SDS011;18351;47.560;9.708;2023-06-14T07:19:08;8.15;;;5.72;;
31782;SDS011;18351;47.560;9.708;2023-06-14T07:21:34;9.45;;;5.60;;
31782;SDS011;18351;47.560;9.708;2023-06-14T07:24:02;6.85;;;5.28;;
31782;SDS011;18351;47.560;9.708;2023-06-14T07:26:28;8.48;;;5.80;;
31782;SDS011;18351;47.560;9.708;2023-06-14T07:28:54;6.53;;;5.07;;
31782;SDS011;18351;47.560;9.708;2023-06-14T07:31:19;9.27;;;5.63;;
31782;SDS011;18351;47.560;9.708;2023-06-14T07:33:45;8.85;;;5.55;;
31782;SDS011;18351;47.560;9.708;2023-06-14T07:36:10;10.48;;;6.22;;
31782;SDS011;18351;47.560;9.708;2023-06-14T07:38:36;9.75;;;6.25;;
31782;SDS011;18351;47.560;9.708;2023-06-14T07:41:01;11.73;;;6.43;;
31782;SDS011;18351;47.560;9.708;2023-06-14T07:43:27;6.72;;;5.28;;
31782;SDS011;18351;47.560;9.708;2023-06-14T07:45:53;7.72;;;5.68;;
31782;SDS011;18351;47.560;9.708;2023-06-14T07:48:18;9.98;;;5.30;;
31782;SDS011;18351;47.560;9.708;2023-06-14T07:50:44;7.38;;;5.47;;
31782;SDS011;18351;47.560;9.708;2023-06-14T07:53:10;10.15;;;6.00;;
31782;SDS011;18351;47.560;9.708;2023-06-14T07:55:35;7.35;;;5.40;;
31782;SDS011;18351;47.560;9.708;2023-06-14T07:58:04;7.15;;;4.63;;
31782;SDS011;18351;47.560;9.708;2023-06-14T08:00:33;10.68;;;5.65;;
31782;SDS011;18351;47.560;9.708;2023-06-14T08:02:59;9.85;;;5.07;;
31782;SDS011;18351;47.560;9.708;2023-06-14T08:05:25;6.53;;;5.10;;
31782;SDS011;18351;47.560;9.708;2023-06-14T08:07:52;14.25;;;6.10;;
31782;SDS011;18351;47.560;9.708;2023-06-14T08:10:18;6.30;;;5.05;;
31782;SDS011;18351;47.560;9.708;2023-06-14T08:12:43;10.85;;;5.20;;
31782;SDS011;18351;47.560;9.708;2023-06-14T08:15:09;11.07;;;5.97;;
31782;SDS011;18351;47.560;9.708;2023-06-14T08:17:35;5.90;;;4.82;;
31782;SDS011;18351;47.560;9.708;2023-06-14T08:20:01;7.90;;;5.05;;
31782;SDS011;18351;47.560;9.708;2023-06-14T08:22:29;6.75;;;5.32;;
31782;SDS011;18351;47.560;9.708;2023-06-14T08:24:57;9.77;;;5.45;;
31782;SDS011;18351;47.560;9.708;2023-06-14T08:27:23;9.05;;;5.57;;
31782;SDS011;18351;47.560;9.708;2023-06-14T08:29:48;9.90;;;5.30;;
31782;SDS011;18351;47.560;9.708;2023-06-14T08:32:15;8.20;;;5.80;;
31782;SDS011;18351;47.560;9.708;2023-06-14T08:34:40;8.98;;;5.43;;
31782;SDS011;18351;47.560;9.708;2023-06-14T08:37:06;8.20;;;5.70;;
31782;SDS011;18351;47.560;9.708;2023-06-14T08:39:31;11.77;;;5.63;;
31782;SDS011;18351;47.560;9.708;2023-06-14T08:41:57;6.80;;;5.57;;
31782;SDS011;18351;47.560;9.708;2023-06-14T08:44:23;15.00;;;5.88;;
31782;SDS011;18351;47.560;9.708;2023-06-14T08:46:49;10.65;;;6.25;;
31782;SDS011;18351;47.560;9.708;2023-06-14T08:49:17;6.07;;;5.05;;
31782;SDS011;18351;47.560;9.708;2023-06-14T08:51:43;8.55;;;5.60;;
31782;SDS011;18351;47.560;9.708;2023-06-14T08:54:09;8.15;;;6.25;;
31782;SDS011;18351;47.560;9.708;2023-06-14T08:56:38;9.50;;;5.30;;
31782;SDS011;18351;47.560;9.708;2023-06-14T08:59:06;8.38;;;5.68;;
31782;SDS011;18351;47.560;9.708;2023-06-14T09:01:33;8.70;;;6.18;;
31782;SDS011;18351;47.560;9.708;2023-06-14T09:03:59;14.25;;;6.32;;
31782;SDS011;18351;47.560;9.708;2023-06-14T09:06:25;6.10;;;5.47;;
31782;SDS011;18351;47.560;9.708;2023-06-14T09:08:53;8.63;;;5.63;;
31782;SDS011;18351;47.560;9.708;2023-06-14T09:11:21;7.55;;;5.85;;
31782;SDS011;18351;47.560;9.708;2023-06-14T09:13:47;6.40;;;5.63;;
31782;SDS011;18351;47.560;9.708;2023-06-14T09:16:13;7.28;;;5.45;;
31782;SDS011;18351;47.560;9.708;2023-06-14T09:18:43;12.90;;;6.60;;
31782;SDS011;18351;47.560;9.708;2023-06-14T09:21:10;11.80;;;6.15;;
31782;SDS011;18351;47.560;9.708;2023-06-14T09:23:37;10.88;;;6.05;;
31782;SDS011;18351;47.560;9.708;2023-06-14T09:26:07;7.47;;;5.40;;
31782;SDS011;18351;47.560;9.708;2023-06-14T09:28:40;8.77;;;5.75;;
31782;SDS011;18351;47.560;9.708;2023-06-14T09:31:07;7.53;;;5.75;;
31782;SDS011;18351;47.560;9.708;2023-06-14T09:33:34;7.90;;;5.30;;
31782;SDS011;18351;47.560;9.708;2023-06-14T09:36:00;5.88;;;4.85;;
31782;SDS011;18351;47.560;9.708;2023-06-14T09:38:26;9.48;;;5.28;;
31782;SDS011;18351;47.560;9.708;2023-06-14T09:40:51;10.13;;;5.70;;
31782;SDS011;18351;47.560;9.708;2023-06-14T09:43:17;10.18;;;5.72;;
31782;SDS011;18351;47.560;9.708;2023-06-14T09:45:43;7.75;;;4.78;;
31782;SDS011;18351;47.560;9.708;2023-06-14T09:48:13;7.25;;;4.65;;
31782;SDS011;18351;47.560;9.708;2023-06-14T09:50:42;8.18;;;5.25;;
31782;SDS011;18351;47.560;9.708;2023-06-14T09:53:11;7.50;;;5.60;;
31782;SDS011;18351;47.560;9.708;2023-06-14T09:55:37;10.20;;;5.20;;
31782;SDS011;18351;47.560;9.708;2023-06-14T09:58:05;8.10;;;5.00;;
31782;SDS011;18351;47.560;9.708;2023-06-14T10:00:32;10.50;;;5.32;;
31782;SDS011;18351;47.560;9.708;2023-06-14T10:03:21;5.82;;;4.22;;
31782;SDS011;18351;47.560;9.708;2023-06-14T10:05:52;7.80;;;6.00;;
31782;SDS011;18351;47.560;9.708;2023-06-14T10:08:22;14.30;;;5.10;;
31782;SDS011;18351;47.560;9.708;2023-06-14T10:10:51;7.72;;;4.78;;
31782;SDS011;18351;47.560;9.708;2023-06-14T10:13:17;8.93;;;5.22;;
31782;SDS011;18351;47.560;9.708;2023-06-14T10:15:54;6.55;;;4.68;;
31782;SDS011;18351;47.560;9.708;2023-06-14T10:24:07;6.68;;;4.03;;
31782;SDS011;18351;47.560;9.708;2023-06-14T10:26:35;8.85;;;5.88;;
31782;SDS011;18351;47.560;9.708;2023-06-14T10:29:22;5.30;;;4.10;;
31782;SDS011;18351;47.560;9.708;2023-06-14T10:31:56;8.57;;;5.00;;
31782;SDS011;18351;47.560;9.708;2023-06-14T10:34:29;9.38;;;5.35;;
31782;SDS011;18351;47.560;9.708;2023-06-14T10:37:05;8.07;;;4.95;;
31782;SDS011;18351;47.560;9.708;2023-06-14T10:39:41;10.07;;;4.70;;
31782;SDS011;18351;47.560;9.708;2023-06-14T10:42:10;13.65;;;5.60;;
31782;SDS011;18351;47.560;9.708;2023-06-14T10:44:49;8.90;;;5.00;;
31782;SDS011;18351;47.560;9.708;2023-06-14T10:49:49;5.97;;;4.45;;
31782;SDS011;18351;47.560;9.708;2023-06-14T10:52:19;9.20;;;4.57;;
31782;SDS011;18351;47.560;9.708;2023-06-14T10:54:55;10.65;;;5.15;;
31782;SDS011;18351;47.560;9.708;2023-06-14T11:00:17;11.48;;;4.47;;
31782;SDS011;18351;47.560;9.708;2023-06-14T11:05:49;8.82;;;4.22;;
31782;SDS011;18351;47.560;9.708;2023-06-14T11:10:49;5.90;;;4.43;;
31782;SDS011;18351;47.560;9.708;2023-06-14T11:13:16;6.07;;;4.07;;
31782;SDS011;18351;47.560;9.708;2023-06-14T11:15:45;17.75;;;4.68;;
31782;SDS011;18351;47.560;9.708;2023-06-14T11:18:13;15.88;;;4.85;;
31782;SDS011;18351;47.560;9.708;2023-06-14T11:20:39;6.47;;;4.68;;
31782;SDS011;18351;47.560;9.708;2023-06-14T11:23:05;6.45;;;4.68;;
31782;SDS011;18351;47.560;9.708;2023-06-14T11:25:31;5.90;;;4.57;;
31782;SDS011;18351;47.560;9.708;2023-06-14T11:27:57;7.00;;;4.60;;
31782;SDS011;18351;47.560;9.708;2023-06-14T11:30:23;7.68;;;4.97;;
31782;SDS011;18351;47.560;9.708;2023-06-14T11:32:50;14.27;;;4.75;;
31782;SDS011;18351;47.560;9.708;2023-06-14T11:35:18;7.28;;;3.90;;
31782;SDS011;18351;47.560;9.708;2023-06-14T11:37:44;16.70;;;5.00;;
31782;SDS011;18351;47.560;9.708;2023-06-14T11:40:10;5.93;;;4.45;;
31782;SDS011;18351;47.560;9.708;2023-06-14T11:42:38;6.15;;;4.00;;
31782;SDS011;18351;47.560;9.708;2023-06-14T11:45:08;4.47;;;3.58;;
31782;SDS011;18351;47.560;9.708;2023-06-14T11:47:35;8.13;;;4.07;;
31782;SDS011;18351;47.560;9.708;2023-06-14T11:50:01;5.13;;;4.13;;
31782;SDS011;18351;47.560;9.708;2023-06-14T11:52:28;9.52;;;4.90;;
31782;SDS011;18351;47.560;9.708;2023-06-14T11:54:53;8.02;;;4.80;;
31782;SDS011;18351;47.560;9.708;2023-06-14T11:57:19;4.85;;;3.90;;
31782;SDS011;18351;47.560;9.708;2023-06-14T11:59:45;6.55;;;3.92;;
31782;SDS011;18351;47.560;9.708;2023-06-14T12:02:14;4.43;;;4.03;;
31782;SDS011;18351;47.560;9.708;2023-06-14T12:04:41;5.82;;;4.28;;
31782;SDS011;18351;47.560;9.708;2023-06-14T12:07:11;5.38;;;3.75;;
31782;SDS011;18351;47.560;9.708;2023-06-14T12:09:40;9.95;;;4.88;;
31782;SDS011;18351;47.560;9.708;2023-06-14T12:12:24;7.80;;;3.92;;
31782;SDS011;18351;47.560;9.708;2023-06-14T12:14:50;9.63;;;5.30;;
31782;SDS011;18351;47.560;9.708;2023-06-14T12:17:17;7.97;;;4.10;;
31782;SDS011;18351;47.560;9.708;2023-06-14T12:19:44;7.78;;;4.35;;
31782;SDS011;18351;47.560;9.708;2023-06-14T12:22:11;5.65;;;4.38;;
31782;SDS011;18351;47.560;9.708;2023-06-14T12:24:37;8.45;;;4.20;;
31782;SDS011;18351;47.560;9.708;2023-06-14T12:27:04;5.68;;;3.90;;
31782;SDS011;18351;47.560;9.708;2023-06-14T12:29:30;4.85;;;4.10;;
31782;SDS011;18351;47.560;9.708;2023-06-14T12:31:57;15.90;;;5.43;;
31782;SDS011;18351;47.560;9.708;2023-06-14T12:34:23;5.03;;;4.30;;
31782;SDS011;18351;47.560;9.708;2023-06-14T12:36:52;6.75;;;5.00;;
31782;SDS011;18351;47.560;9.708;2023-06-14T12:39:18;5.95;;;4.35;;
31782;SDS011;18351;47.560;9.708;2023-06-14T12:41:44;9.23;;;4.22;;
31782;SDS011;18351;47.560;9.708;2023-06-14T12:44:13;12.18;;;4.53;;
31782;SDS011;18351;47.560;9.708;2023-06-14T12:46:39;3.92;;;3.53;;
31782;SDS011;18351;47.560;9.708;2023-06-14T12:49:11;7.75;;;4.15;;
31782;SDS011;18351;47.560;9.708;2023-06-14T12:51:38;6.68;;;4.00;;
31782;SDS011;18351;47.560;9.708;2023-06-14T12:54:04;10.45;;;4.50;;
31782;SDS011;18351;47.560;9.708;2023-06-14T12:56:30;4.68;;;3.90;;
31782;SDS011;18351;47.560;9.708;2023-06-14T12:58:56;7.38;;;3.90;;
31782;SDS011;18351;47.560;9.708;2023-06-14T13:01:21;9.25;;;4.55;;
31782;SDS011;18351;47.560;9.708;2023-06-14T13:03:47;8.27;;;4.45;;
31782;SDS011;18351;47.560;9.708;2023-06-14T13:06:13;9.73;;;4.00;;
31782;SDS011;18351;47.560;9.708;2023-06-14T13:08:39;6.88;;;4.10;;
31782;SDS011;18351;47.560;9.708;2023-06-14T13:11:04;7.97;;;5.00;;
31782;SDS011;18351;47.560;9.708;2023-06-14T13:13:30;5.47;;;3.97;;
31782;SDS011;18351;47.560;9.708;2023-06-14T13:15:55;4.80;;;3.53;;
31782;SDS011;18351;47.560;9.708;2023-06-14T13:18:21;5.95;;;3.85;;
31782;SDS011;18351;47.560;9.708;2023-06-14T13:20:46;6.25;;;3.92;;
31782;SDS011;18351;47.560;9.708;2023-06-14T13:23:12;5.57;;;3.88;;
31782;SDS011;18351;47.560;9.708;2023-06-14T13:25:39;6.18;;;4.22;;
31782;SDS011;18351;47.560;9.708;2023-06-14T13:28:05;7.05;;;3.92;;
31782;SDS011;18351;47.560;9.708;2023-06-14T13:30:31;6.70;;;3.95;;
31782;SDS011;18351;47.560;9.708;2023-06-14T13:32:57;5.53;;;4.13;;
31782;SDS011;18351;47.560;9.708;2023-06-14T13:35:23;20.50;;;4.82;;
31782;SDS011;18351;47.560;9.708;2023-06-14T13:37:49;7.15;;;4.18;;
31782;SDS011;18351;47.560;9.708;2023-06-14T13:40:15;9.13;;;3.95;;
31782;SDS011;18351;47.560;9.708;2023-06-14T13:42:41;8.60;;;4.15;;
31782;SDS011;18351;47.560;9.708;2023-06-14T13:45:07;4.88;;;3.70;;
31782;SDS011;18351;47.560;9.708;2023-06-14T13:47:33;4.90;;;4.00;;
31782;SDS011;18351;47.560;9.708;2023-06-14T13:49:59;5.53;;;3.47;;
31782;SDS011;18351;47.560;9.708;2023-06-14T13:52:25;7.43;;;3.50;;
31782;SDS011;18351;47.560;9.708;2023-06-14T13:54:51;8.13;;;4.30;;
31782;SDS011;18351;47.560;9.708;2023-06-14T13:57:16;5.50;;;3.88;;
31782;SDS011;18351;47.560;9.708;2023-06-14T13:59:43;9.45;;;4.07;;
31782;SDS011;18351;47.560;9.708;2023-06-14T14:02:12;6.90;;;4.47;;
31782;SDS011;18351;47.560;9.708;2023-06-14T14:04:38;9.80;;;4.20;;
31782;SDS011;18351;47.560;9.708;2023-06-14T14:07:04;6.35;;;3.78;;
31782;SDS011;18351;47.560;9.708;2023-06-14T14:09:31;10.10;;;3.67;;
31782;SDS011;18351;47.560;9.708;2023-06-14T14:11:57;7.07;;;4.05;;
31782;SDS011;18351;47.560;9.708;2023-06-14T14:14:23;7.88;;;3.60;;
31782;SDS011;18351;47.560;9.708;2023-06-14T14:16:50;6.50;;;4.13;;
31782;SDS011;18351;47.560;9.708;2023-06-14T14:19:22;5.18;;;3.67;;
31782;SDS011;18351;47.560;9.708;2023-06-14T14:21:48;6.05;;;3.20;;
31782;SDS011;18351;47.560;9.708;2023-06-14T14:24:14;4.63;;;3.70;;
31782;SDS011;18351;47.560;9.708;2023-06-14T14:26:39;6.65;;;4.18;;
31782;SDS011;18351;47.560;9.708;2023-06-14T14:29:05;8.82;;;3.83;;
31782;SDS011;18351;47.560;9.708;2023-06-14T14:31:31;6.50;;;3.50;;
31782;SDS011;18351;47.560;9.708;2023-06-14T14:33:57;6.22;;;3.67;;
31782;SDS011;18351;47.560;9.708;2023-06-14T14:36:22;5.43;;;3.67;;
31782;SDS011;18351;47.560;9.708;2023-06-14T14:38:48;6.75;;;3.75;;
31782;SDS011;18351;47.560;9.708;2023-06-14T14:41:14;5.30;;;3.55;;
31782;SDS011;18351;47.560;9.708;2023-06-14T14:43:39;5.70;;;4.18;;
31782;SDS011;18351;47.560;9.708;2023-06-14T14:46:05;5.13;;;3.80;;
31782;SDS011;18351;47.560;9.708;2023-06-14T14:48:31;5.70;;;3.80;;
31782;SDS011;18351;47.560;9.708;2023-06-14T14:50:56;9.10;;;3.95;;
31782;SDS011;18351;47.560;9.708;2023-06-14T14:53:22;14.48;;;4.40;;
31782;SDS011;18351;47.560;9.708;2023-06-14T14:55:48;11.80;;;4.15;;
31782;SDS011;18351;47.560;9.708;2023-06-14T14:58:14;7.28;;;4.05;;
31782;SDS011;18351;47.560;9.708;2023-06-14T15:00:42;4.55;;;3.45;;
31782;SDS011;18351;47.560;9.708;2023-06-14T15:03:11;6.70;;;3.78;;
31782;SDS011;18351;47.560;9.708;2023-06-14T15:05:37;8.80;;;3.40;;
31782;SDS011;18351;47.560;9.708;2023-06-14T15:08:03;4.82;;;3.75;;